sensor_id;sensor_type;location;lat;lon;timestamp;P1;durP1;ratioP1;P2;durP2;ratioP2
4980;SDS011;2507;50.392;7.482;2022-09-30T00:00:58;8.77;;;7.80;;
4980;SDS011;2507;50.392;7.482;2022-09-30T00:03:24;9.10;;;8.30;;
4980;SDS011;2507;50.392;7.482;2022-09-30T00:05:59;14.40;;;8.50;;
4980;SDS011;2507;50.392;7.482;2022-09-30T00:08:26;11.57;;;9.33;;
4980;SDS011;2507;50.392;7.482;2022-09-30T00:11:01;8.80;;;8.00;;
4980;SDS011;2507;50.392;7.482;2022-09-30T00:13:29;7.97;;;7.20;;
4980;SDS011;2507;50.392;7.482;2022-09-30T00:15:59;9.27;;;7.37;;
4980;SDS011;2507;50.392;7.482;2022-09-30T00:18:25;8.53;;;7.83;;
4980;SDS011;2507;50.392;7.482;2022-09-30T00:20:51;8.37;;;7.57;;
4980;SDS011;2507;50.392;7.482;2022-09-30T00:23:17;8.97;;;8.10;;
4980;SDS011;2507;50.392;7.482;2022-09-30T00:25:44;9.07;;;8.17;;
4980;SDS011;2507;50.392;7.482;2022-09-30T00:28:09;8.70;;;8.00;;
4980;SDS011;2507;50.392;7.482;2022-09-30T00:30:34;8.47;;;7.63;;
4980;SDS011;2507;50.392;7.482;2022-09-30T00:33:00;7.67;;;7.07;;
4980;SDS011;2507;50.392;7.482;2022-09-30T00:35:25;9.50;;;7.03;;
4980;SDS011;2507;50.392;7.482;2022-09-30T00:37:51;8.43;;;7.60;;
4980;SDS011;2507;50.392;7.482;2022-09-30T00:40:20;8.10;;;7.40;;
4980;SDS011;2507;50.392;7.482;2022-09-30T00:42:45;8.50;;;7.80;;
4980;SDS011;2507;50.392;7.482;2022-09-30T00:45:11;7.93;;;7.23;;
4980;SDS011;2507;50.392;7.482;2022-09-30T00:47:46;8.60;;;7.80;;
4980;SDS011;2507;50.392;7.482;2022-09-30T00:52:55;8.50;;;7.70;;
4980;SDS011;2507;50.392;7.482;2022-09-30T00:55:28;8.47;;;7.50;;
4980;SDS011;2507;50.392;7.482;2022-09-30T00:58:02;8.60;;;7.80;;
4980;SDS011;2507;50.392;7.482;2022-09-30T01:00:29;8.73;;;7.93;;
4980;SDS011;2507;50.392;7.482;2022-09-30T01:02:55;7.83;;;7.07;;
4980;SDS011;2507;50.392;7.482;2022-09-30T01:05:21;10.10;;;7.17;;
4980;SDS011;2507;50.392;7.482;2022-09-30T01:07:49;7.00;;;6.50;;
4980;SDS011;2507;50.392;7.482;2022-09-30T01:10:15;8.03;;;7.33;;
4980;SDS011;2507;50.392;7.482;2022-09-30T01:12:40;8.23;;;7.50;;
4980;SDS011;2507;50.392;7.482;2022-09-30T01:15:06;7.63;;;7.00;;
4980;SDS011;2507;50.392;7.482;2022-09-30T01:17:36;7.47;;;6.90;;
4980;SDS011;2507;50.392;7.482;2022-09-30T01:20:12;9.70;;;8.03;;
4980;SDS011;2507;50.392;7.482;2022-09-30T01:22:44;10.70;;;8.60;;
4980;SDS011;2507;50.392;7.482;2022-09-30T01:30:59;8.57;;;7.77;;
4980;SDS011;2507;50.392;7.482;2022-09-30T01:39:28;7.30;;;6.70;;
4980;SDS011;2507;50.392;7.482;2022-09-30T01:44:55;13.73;;;6.60;;
4980;SDS011;2507;50.392;7.482;2022-09-30T01:47:33;8.90;;;7.40;;
4980;SDS011;2507;50.392;7.482;2022-09-30T01:52:48;11.33;;;7.97;;
4980;SDS011;2507;50.392;7.482;2022-09-30T01:55:30;14.83;;;9.20;;
4980;SDS011;2507;50.392;7.482;2022-09-30T02:00:30;13.40;;;7.73;;
4980;SDS011;2507;50.392;7.482;2022-09-30T02:03:04;17.47;;;8.83;;
4980;SDS011;2507;50.392;7.482;2022-09-30T02:05:35;12.90;;;8.20;;
4980;SDS011;2507;50.392;7.482;2022-09-30T02:08:52;13.90;;;9.13;;
4980;SDS011;2507;50.392;7.482;2022-09-30T02:11:20;13.60;;;8.37;;
4980;SDS011;2507;50.392;7.482;2022-09-30T02:13:54;12.83;;;8.37;;
4980;SDS011;2507;50.392;7.482;2022-09-30T02:16:37;15.47;;;8.50;;
4980;SDS011;2507;50.392;7.482;2022-09-30T02:22:35;9.53;;;8.33;;
4980;SDS011;2507;50.392;7.482;2022-09-30T02:25:04;12.43;;;9.37;;
4980;SDS011;2507;50.392;7.482;2022-09-30T02:27:33;11.33;;;8.90;;
4980;SDS011;2507;50.392;7.482;2022-09-30T02:30:06;13.13;;;9.03;;
4980;SDS011;2507;50.392;7.482;2022-09-30T02:32:35;10.03;;;7.70;;
4980;SDS011;2507;50.392;7.482;2022-09-30T02:35:08;10.53;;;8.97;;
4980;SDS011;2507;50.392;7.482;2022-09-30T02:37:40;8.37;;;7.60;;
4980;SDS011;2507;50.392;7.482;2022-09-30T02:42:45;8.57;;;7.80;;
4980;SDS011;2507;50.392;7.482;2022-09-30T02:45:13;10.07;;;9.07;;
4980;SDS011;2507;50.392;7.482;2022-09-30T02:50:34;9.27;;;8.47;;
4980;SDS011;2507;50.392;7.482;2022-09-30T02:56:02;8.90;;;8.13;;
4980;SDS011;2507;50.392;7.482;2022-09-30T02:58:33;8.13;;;7.33;;
4980;SDS011;2507;50.392;7.482;2022-09-30T03:01:07;8.00;;;7.20;;
4980;SDS011;2507;50.392;7.482;2022-09-30T03:03:40;8.37;;;7.60;;
4980;SDS011;2507;50.392;7.482;2022-09-30T03:06:08;24.60;;;8.10;;
4980;SDS011;2507;50.392;7.482;2022-09-30T03:08:34;9.10;;;7.40;;
4980;SDS011;2507;50.392;7.482;2022-09-30T03:11:00;9.83;;;8.73;;
4980;SDS011;2507;50.392;7.482;2022-09-30T03:19:26;8.50;;;7.70;;
4980;SDS011;2507;50.392;7.482;2022-09-30T03:25:18;10.07;;;9.10;;
4980;SDS011;2507;50.392;7.482;2022-09-30T03:30:16;23.03;;;12.13;;
4980;SDS011;2507;50.392;7.482;2022-09-30T03:38:34;10.00;;;9.10;;
4980;SDS011;2507;50.392;7.482;2022-09-30T03:41:27;11.57;;;9.50;;
4980;SDS011;2507;50.392;7.482;2022-09-30T03:44:06;12.30;;;8.93;;
4980;SDS011;2507;50.392;7.482;2022-09-30T03:46:35;29.47;;;21.17;;
4980;SDS011;2507;50.392;7.482;2022-09-30T03:49:06;23.93;;;10.07;;
4980;SDS011;2507;50.392;7.482;2022-09-30T03:51:36;49.37;;;10.50;;
4980;SDS011;2507;50.392;7.482;2022-09-30T03:54:07;22.03;;;11.10;;
4980;SDS011;2507;50.392;7.482;2022-09-30T03:56:34;13.40;;;8.00;;
4980;SDS011;2507;50.392;7.482;2022-09-30T03:59:01;15.83;;;9.70;;
4980;SDS011;2507;50.392;7.482;2022-09-30T04:01:27;19.40;;;8.77;;
4980;SDS011;2507;50.392;7.482;2022-09-30T04:03:53;8.83;;;8.03;;
4980;SDS011;2507;50.392;7.482;2022-09-30T04:06:19;9.20;;;8.40;;
4980;SDS011;2507;50.392;7.482;2022-09-30T04:08:46;34.10;;;9.13;;
4980;SDS011;2507;50.392;7.482;2022-09-30T04:11:11;19.80;;;8.00;;
4980;SDS011;2507;50.392;7.482;2022-09-30T04:13:37;15.03;;;8.40;;
4980;SDS011;2507;50.392;7.482;2022-09-30T04:16:03;9.40;;;8.60;;
4980;SDS011;2507;50.392;7.482;2022-09-30T04:18:29;9.77;;;8.20;;
4980;SDS011;2507;50.392;7.482;2022-09-30T04:20:55;23.70;;;9.20;;
4980;SDS011;2507;50.392;7.482;2022-09-30T04:23:21;8.10;;;6.97;;
4980;SDS011;2507;50.392;7.482;2022-09-30T04:25:55;8.43;;;7.73;;
4980;SDS011;2507;50.392;7.482;2022-09-30T04:28:21;9.37;;;8.47;;
4980;SDS011;2507;50.392;7.482;2022-09-30T04:30:47;11.33;;;8.37;;
4980;SDS011;2507;50.392;7.482;2022-09-30T04:33:12;13.53;;;8.90;;
4980;SDS011;2507;50.392;7.482;2022-09-30T04:35:38;11.10;;;7.77;;
4980;SDS011;2507;50.392;7.482;2022-09-30T04:38:03;8.77;;;7.40;;
4980;SDS011;2507;50.392;7.482;2022-09-30T04:40:31;7.47;;;6.87;;
4980;SDS011;2507;50.392;7.482;2022-09-30T04:42:59;7.77;;;7.10;;
4980;SDS011;2507;50.392;7.482;2022-09-30T04:45:25;6.53;;;5.93;;
4980;SDS011;2507;50.392;7.482;2022-09-30T04:47:50;5.97;;;5.57;;
4980;SDS011;2507;50.392;7.482;2022-09-30T04:50:16;6.87;;;6.27;;
4980;SDS011;2507;50.392;7.482;2022-09-30T04:52:41;10.20;;;6.13;;
4980;SDS011;2507;50.392;7.482;2022-09-30T04:55:07;7.20;;;6.60;;
4980;SDS011;2507;50.392;7.482;2022-09-30T04:57:33;7.33;;;6.70;;
4980;SDS011;2507;50.392;7.482;2022-09-30T04:59:59;6.60;;;5.93;;
4980;SDS011;2507;50.392;7.482;2022-09-30T05:02:24;15.53;;;7.47;;
4980;SDS011;2507;50.392;7.482;2022-09-30T05:04:50;10.53;;;7.67;;
4980;SDS011;2507;50.392;7.482;2022-09-30T05:07:15;7.70;;;6.80;;
4980;SDS011;2507;50.392;7.482;2022-09-30T05:09:40;10.73;;;6.93;;
4980;SDS011;2507;50.392;7.482;2022-09-30T05:12:05;16.83;;;8.60;;
4980;SDS011;2507;50.392;7.482;2022-09-30T05:14:31;9.30;;;8.17;;
4980;SDS011;2507;50.392;7.482;2022-09-30T05:16:57;15.23;;;8.40;;
4980;SDS011;2507;50.392;7.482;2022-09-30T05:19:23;21.10;;;8.97;;
4980;SDS011;2507;50.392;7.482;2022-09-30T05:21:48;18.80;;;10.13;;
4980;SDS011;2507;50.392;7.482;2022-09-30T05:24:13;11.73;;;9.33;;
4980;SDS011;2507;50.392;7.482;2022-09-30T05:26:38;16.30;;;10.20;;
4980;SDS011;2507;50.392;7.482;2022-09-30T05:29:04;8.67;;;7.77;;
4980;SDS011;2507;50.392;7.482;2022-09-30T05:31:30;12.73;;;8.30;;
4980;SDS011;2507;50.392;7.482;2022-09-30T05:33:56;11.40;;;7.93;;
4980;SDS011;2507;50.392;7.482;2022-09-30T05:36:21;7.73;;;7.03;;
4980;SDS011;2507;50.392;7.482;2022-09-30T05:38:49;10.17;;;9.30;;
4980;SDS011;2507;50.392;7.482;2022-09-30T05:41:16;9.43;;;8.50;;
4980;SDS011;2507;50.392;7.482;2022-09-30T05:43:45;10.33;;;9.00;;
4980;SDS011;2507;50.392;7.482;2022-09-30T05:46:14;13.33;;;9.90;;
4980;SDS011;2507;50.392;7.482;2022-09-30T05:48:40;11.23;;;9.17;;
4980;SDS011;2507;50.392;7.482;2022-09-30T05:51:05;11.87;;;8.03;;
4980;SDS011;2507;50.392;7.482;2022-09-30T05:53:31;13.83;;;8.50;;
4980;SDS011;2507;50.392;7.482;2022-09-30T05:55:59;16.60;;;10.10;;
4980;SDS011;2507;50.392;7.482;2022-09-30T05:58:24;26.17;;;10.13;;
4980;SDS011;2507;50.392;7.482;2022-09-30T06:00:51;30.80;;;11.00;;
4980;SDS011;2507;50.392;7.482;2022-09-30T06:03:16;11.60;;;10.40;;
4980;SDS011;2507;50.392;7.482;2022-09-30T06:05:42;12.00;;;9.80;;
4980;SDS011;2507;50.392;7.482;2022-09-30T06:08:09;10.43;;;9.33;;
4980;SDS011;2507;50.392;7.482;2022-09-30T06:10:35;11.43;;;10.33;;
4980;SDS011;2507;50.392;7.482;2022-09-30T06:13:03;12.10;;;9.20;;
4980;SDS011;2507;50.392;7.482;2022-09-30T06:15:29;8.73;;;8.00;;
4980;SDS011;2507;50.392;7.482;2022-09-30T06:17:55;9.40;;;8.47;;
4980;SDS011;2507;50.392;7.482;2022-09-30T06:20:20;16.13;;;8.87;;
4980;SDS011;2507;50.392;7.482;2022-09-30T06:22:46;7.07;;;6.53;;
4980;SDS011;2507;50.392;7.482;2022-09-30T06:25:11;9.50;;;6.83;;
4980;SDS011;2507;50.392;7.482;2022-09-30T06:27:36;7.17;;;6.57;;
4980;SDS011;2507;50.392;7.482;2022-09-30T06:30:03;6.07;;;5.60;;
4980;SDS011;2507;50.392;7.482;2022-09-30T06:32:29;7.20;;;6.60;;
4980;SDS011;2507;50.392;7.482;2022-09-30T06:34:55;7.17;;;6.53;;
4980;SDS011;2507;50.392;7.482;2022-09-30T06:37:22;8.43;;;7.47;;
4980;SDS011;2507;50.392;7.482;2022-09-30T06:39:48;7.03;;;6.43;;
4980;SDS011;2507;50.392;7.482;2022-09-30T06:42:15;13.53;;;9.80;;
4980;SDS011;2507;50.392;7.482;2022-09-30T06:44:41;24.60;;;13.27;;
4980;SDS011;2507;50.392;7.482;2022-09-30T06:47:07;16.53;;;11.50;;
4980;SDS011;2507;50.392;7.482;2022-09-30T06:49:33;12.20;;;9.43;;
4980;SDS011;2507;50.392;7.482;2022-09-30T06:51:58;11.23;;;8.57;;
4980;SDS011;2507;50.392;7.482;2022-09-30T06:54:25;14.40;;;11.13;;
4980;SDS011;2507;50.392;7.482;2022-09-30T06:56:52;21.80;;;11.70;;
4980;SDS011;2507;50.392;7.482;2022-09-30T06:59:21;29.03;;;17.73;;
4980;SDS011;2507;50.392;7.482;2022-09-30T07:01:47;17.33;;;13.10;;
4980;SDS011;2507;50.392;7.482;2022-09-30T07:04:12;11.40;;;9.80;;
4980;SDS011;2507;50.392;7.482;2022-09-30T07:06:38;7.10;;;6.37;;
4980;SDS011;2507;50.392;7.482;2022-09-30T07:09:04;6.63;;;6.13;;
4980;SDS011;2507;50.392;7.482;2022-09-30T07:11:30;10.13;;;9.17;;
4980;SDS011;2507;50.392;7.482;2022-09-30T07:13:55;17.73;;;8.70;;
4980;SDS011;2507;50.392;7.482;2022-09-30T07:16:21;9.30;;;8.50;;
4980;SDS011;2507;50.392;7.482;2022-09-30T07:18:49;13.83;;;11.20;;
4980;SDS011;2507;50.392;7.482;2022-09-30T07:21:15;13.10;;;11.57;;
4980;SDS011;2507;50.392;7.482;2022-09-30T07:23:42;12.57;;;10.10;;
4980;SDS011;2507;50.392;7.482;2022-09-30T07:26:11;9.83;;;8.83;;
4980;SDS011;2507;50.392;7.482;2022-09-30T07:28:37;9.57;;;8.67;;
4980;SDS011;2507;50.392;7.482;2022-09-30T07:31:07;10.13;;;8.90;;
4980;SDS011;2507;50.392;7.482;2022-09-30T07:33:36;8.63;;;7.70;;
4980;SDS011;2507;50.392;7.482;2022-09-30T07:36:02;7.53;;;6.93;;
4980;SDS011;2507;50.392;7.482;2022-09-30T07:38:31;9.37;;;8.50;;
4980;SDS011;2507;50.392;7.482;2022-09-30T07:40:58;12.97;;;7.90;;
4980;SDS011;2507;50.392;7.482;2022-09-30T07:43:27;47.37;;;8.67;;
4980;SDS011;2507;50.392;7.482;2022-09-30T07:46:06;20.60;;;8.70;;
4980;SDS011;2507;50.392;7.482;2022-09-30T07:48:33;19.27;;;9.10;;
4980;SDS011;2507;50.392;7.482;2022-09-30T07:53:37;20.60;;;8.30;;
4980;SDS011;2507;50.392;7.482;2022-09-30T07:56:04;19.37;;;9.57;;
4980;SDS011;2507;50.392;7.482;2022-09-30T07:58:30;10.43;;;8.90;;
4980;SDS011;2507;50.392;7.482;2022-09-30T08:00:55;11.70;;;9.30;;
4980;SDS011;2507;50.392;7.482;2022-09-30T08:03:20;10.10;;;7.67;;
4980;SDS011;2507;50.392;7.482;2022-09-30T08:05:46;7.50;;;6.90;;
4980;SDS011;2507;50.392;7.482;2022-09-30T08:08:13;6.80;;;6.20;;
4980;SDS011;2507;50.392;7.482;2022-09-30T08:10:39;7.40;;;6.70;;
4980;SDS011;2507;50.392;7.482;2022-09-30T08:13:05;6.67;;;6.23;;
4980;SDS011;2507;50.392;7.482;2022-09-30T08:15:31;5.47;;;5.10;;
4980;SDS011;2507;50.392;7.482;2022-09-30T08:17:56;5.77;;;5.27;;
4980;SDS011;2507;50.392;7.482;2022-09-30T08:20:22;6.50;;;6.10;;
4980;SDS011;2507;50.392;7.482;2022-09-30T08:22:50;5.00;;;4.63;;
4980;SDS011;2507;50.392;7.482;2022-09-30T08:25:16;5.43;;;5.10;;
4980;SDS011;2507;50.392;7.482;2022-09-30T08:27:42;4.60;;;4.30;;
4980;SDS011;2507;50.392;7.482;2022-09-30T08:30:07;5.27;;;4.87;;
4980;SDS011;2507;50.392;7.482;2022-09-30T08:32:33;4.80;;;4.40;;
4980;SDS011;2507;50.392;7.482;2022-09-30T08:34:58;5.30;;;4.90;;
4980;SDS011;2507;50.392;7.482;2022-09-30T08:37:24;5.40;;;5.00;;
4980;SDS011;2507;50.392;7.482;2022-09-30T08:39:49;5.80;;;5.40;;
4980;SDS011;2507;50.392;7.482;2022-09-30T08:45:33;5.83;;;5.40;;
4980;SDS011;2507;50.392;7.482;2022-09-30T08:53:27;5.90;;;5.50;;
4980;SDS011;2507;50.392;7.482;2022-09-30T08:55:55;5.80;;;5.40;;
4980;SDS011;2507;50.392;7.482;2022-09-30T09:04:00;6.00;;;5.50;;
4980;SDS011;2507;50.392;7.482;2022-09-30T09:06:41;5.90;;;5.47;;
4980;SDS011;2507;50.392;7.482;2022-09-30T09:17:02;5.53;;;5.13;;
4980;SDS011;2507;50.392;7.482;2022-09-30T09:20:12;8.43;;;4.93;;
4980;SDS011;2507;50.392;7.482;2022-09-30T09:22:35;5.10;;;4.73;;
4980;SDS011;2507;50.392;7.482;2022-09-30T09:25:02;7.27;;;5.30;;
4980;SDS011;2507;50.392;7.482;2022-09-30T09:27:37;5.30;;;4.87;;
4980;SDS011;2507;50.392;7.482;2022-09-30T09:30:13;5.23;;;4.83;;
4980;SDS011;2507;50.392;7.482;2022-09-30T09:32:50;5.80;;;5.30;;
4980;SDS011;2507;50.392;7.482;2022-09-30T09:43:48;6.73;;;6.23;;
4980;SDS011;2507;50.392;7.482;2022-09-30T09:46:31;5.97;;;5.57;;
4980;SDS011;2507;50.392;7.482;2022-09-30T09:51:39;7.37;;;6.77;;
4980;SDS011;2507;50.392;7.482;2022-09-30T09:54:11;8.10;;;7.40;;
4980;SDS011;2507;50.392;7.482;2022-09-30T09:56:39;11.30;;;7.80;;
4980;SDS011;2507;50.392;7.482;2022-09-30T10:01:35;7.97;;;7.27;;
4980;SDS011;2507;50.392;7.482;2022-09-30T10:06:48;7.77;;;7.17;;
4980;SDS011;2507;50.392;7.482;2022-09-30T10:09:37;7.77;;;7.17;;
4980;SDS011;2507;50.392;7.482;2022-09-30T10:14:29;9.33;;;6.97;;
4980;SDS011;2507;50.392;7.482;2022-09-30T10:16:59;7.83;;;7.13;;
4980;SDS011;2507;50.392;7.482;2022-09-30T10:19:26;8.17;;;7.27;;
4980;SDS011;2507;50.392;7.482;2022-09-30T10:24:37;8.77;;;7.90;;
4980;SDS011;2507;50.392;7.482;2022-09-30T10:27:04;9.33;;;7.87;;
4980;SDS011;2507;50.392;7.482;2022-09-30T10:29:51;9.97;;;9.07;;
4980;SDS011;2507;50.392;7.482;2022-09-30T10:32:16;9.90;;;9.10;;
4980;SDS011;2507;50.392;7.482;2022-09-30T10:34:41;9.00;;;8.20;;
4980;SDS011;2507;50.392;7.482;2022-09-30T10:37:18;9.57;;;8.57;;
4980;SDS011;2507;50.392;7.482;2022-09-30T10:40:03;8.80;;;8.10;;
4980;SDS011;2507;50.392;7.482;2022-09-30T10:42:33;10.13;;;9.10;;
4980;SDS011;2507;50.392;7.482;2022-09-30T10:45:07;11.30;;;10.30;;
4980;SDS011;2507;50.392;7.482;2022-09-30T10:47:45;11.10;;;9.97;;
4980;SDS011;2507;50.392;7.482;2022-09-30T10:50:14;10.70;;;9.70;;
4980;SDS011;2507;50.392;7.482;2022-09-30T10:52:57;10.53;;;9.63;;
4980;SDS011;2507;50.392;7.482;2022-09-30T10:57:56;10.70;;;9.80;;
4980;SDS011;2507;50.392;7.482;2022-09-30T11:00:27;10.87;;;9.77;;
4980;SDS011;2507;50.392;7.482;2022-09-30T11:05:28;14.03;;;10.40;;
4980;SDS011;2507;50.392;7.482;2022-09-30T11:08:13;10.53;;;9.43;;
4980;SDS011;2507;50.392;7.482;2022-09-30T11:19:29;10.30;;;9.27;;
4980;SDS011;2507;50.392;7.482;2022-09-30T11:25:00;15.00;;;9.13;;
4980;SDS011;2507;50.392;7.482;2022-09-30T11:38:45;9.27;;;8.37;;
4980;SDS011;2507;50.392;7.482;2022-09-30T11:47:02;8.57;;;7.77;;
4980;SDS011;2507;50.392;7.482;2022-09-30T11:55:39;9.03;;;8.23;;
4980;SDS011;2507;50.392;7.482;2022-09-30T11:58:21;7.63;;;6.83;;
4980;SDS011;2507;50.392;7.482;2022-09-30T12:00:54;9.80;;;7.00;;
4980;SDS011;2507;50.392;7.482;2022-09-30T12:03:34;7.77;;;7.07;;
4980;SDS011;2507;50.392;7.482;2022-09-30T12:06:10;7.77;;;7.13;;
4980;SDS011;2507;50.392;7.482;2022-09-30T12:08:47;13.80;;;5.93;;
4980;SDS011;2507;50.392;7.482;2022-09-30T12:11:17;14.17;;;6.20;;
4980;SDS011;2507;50.392;7.482;2022-09-30T12:13:48;6.37;;;5.70;;
4980;SDS011;2507;50.392;7.482;2022-09-30T12:16:18;8.97;;;5.37;;
4980;SDS011;2507;50.392;7.482;2022-09-30T12:18:52;5.27;;;4.97;;
4980;SDS011;2507;50.392;7.482;2022-09-30T12:21:29;10.77;;;6.20;;
4980;SDS011;2507;50.392;7.482;2022-09-30T12:24:01;12.47;;;5.30;;
4980;SDS011;2507;50.392;7.482;2022-09-30T12:26:29;11.83;;;5.70;;
4980;SDS011;2507;50.392;7.482;2022-09-30T12:32:02;7.10;;;3.80;;
4980;SDS011;2507;50.392;7.482;2022-09-30T12:40:17;6.43;;;5.07;;
4980;SDS011;2507;50.392;7.482;2022-09-30T12:48:26;5.30;;;3.90;;
4980;SDS011;2507;50.392;7.482;2022-09-30T12:51:20;7.77;;;3.70;;
4980;SDS011;2507;50.392;7.482;2022-09-30T12:53:50;5.73;;;3.23;;
4980;SDS011;2507;50.392;7.482;2022-09-30T12:56:21;5.27;;;3.03;;
4980;SDS011;2507;50.392;7.482;2022-09-30T12:58:52;3.50;;;1.80;;
4980;SDS011;2507;50.392;7.482;2022-09-30T13:01:22;1.03;;;0.97;;
4980;SDS011;2507;50.392;7.482;2022-09-30T13:03:52;1.73;;;0.80;;
4980;SDS011;2507;50.392;7.482;2022-09-30T13:14:13;4.23;;;1.73;;
4980;SDS011;2507;50.392;7.482;2022-09-30T13:19:36;3.20;;;0.80;;
4980;SDS011;2507;50.392;7.482;2022-09-30T13:27:31;1.53;;;1.17;;
4980;SDS011;2507;50.392;7.482;2022-09-30T13:29:58;2.43;;;1.20;;
4980;SDS011;2507;50.392;7.482;2022-09-30T13:32:33;1.03;;;0.90;;
4980;SDS011;2507;50.392;7.482;2022-09-30T13:40:42;3.57;;;2.47;;
4980;SDS011;2507;50.392;7.482;2022-09-30T13:43:30;1.20;;;1.20;;
4980;SDS011;2507;50.392;7.482;2022-09-30T13:48:59;1.70;;;0.67;;
4980;SDS011;2507;50.392;7.482;2022-09-30T13:51:29;2.40;;;0.90;;
4980;SDS011;2507;50.392;7.482;2022-09-30T13:53:57;1.63;;;0.90;;
4980;SDS011;2507;50.392;7.482;2022-09-30T13:56:32;0.70;;;0.70;;
4980;SDS011;2507;50.392;7.482;2022-09-30T14:07:28;1.00;;;0.77;;
4980;SDS011;2507;50.392;7.482;2022-09-30T14:15:44;2.67;;;1.23;;
4980;SDS011;2507;50.392;7.482;2022-09-30T14:23:54;1.03;;;0.90;;
4980;SDS011;2507;50.392;7.482;2022-09-30T14:31:44;2.53;;;0.90;;
4980;SDS011;2507;50.392;7.482;2022-09-30T14:34:14;1.33;;;1.23;;
4980;SDS011;2507;50.392;7.482;2022-09-30T14:36:42;1.43;;;1.37;;
4980;SDS011;2507;50.392;7.482;2022-09-30T14:39:13;2.60;;;1.30;;
4980;SDS011;2507;50.392;7.482;2022-09-30T14:41:47;1.23;;;0.90;;
4980;SDS011;2507;50.392;7.482;2022-09-30T14:44:15;2.20;;;1.20;;
4980;SDS011;2507;50.392;7.482;2022-09-30T14:46:42;1.53;;;1.43;;
4980;SDS011;2507;50.392;7.482;2022-09-30T14:49:21;0.90;;;0.90;;
4980;SDS011;2507;50.392;7.482;2022-09-30T14:51:56;1.43;;;1.33;;
4980;SDS011;2507;50.392;7.482;2022-09-30T14:54:24;1.47;;;1.40;;
4980;SDS011;2507;50.392;7.482;2022-09-30T14:56:54;1.30;;;1.07;;
4980;SDS011;2507;50.392;7.482;2022-09-30T14:59:22;1.13;;;1.00;;
4980;SDS011;2507;50.392;7.482;2022-09-30T15:04:52;1.10;;;1.00;;
4980;SDS011;2507;50.392;7.482;2022-09-30T15:07:19;1.00;;;1.00;;
4980;SDS011;2507;50.392;7.482;2022-09-30T15:09:45;0.60;;;0.60;;
4980;SDS011;2507;50.392;7.482;2022-09-30T15:12:18;1.07;;;1.07;;
4980;SDS011;2507;50.392;7.482;2022-09-30T15:17:23;0.70;;;0.70;;
4980;SDS011;2507;50.392;7.482;2022-09-30T15:19:53;2.60;;;0.83;;
4980;SDS011;2507;50.392;7.482;2022-09-30T15:22:20;0.73;;;0.73;;
4980;SDS011;2507;50.392;7.482;2022-09-30T15:24:47;0.90;;;0.80;;
4980;SDS011;2507;50.392;7.482;2022-09-30T15:27:23;1.47;;;1.03;;
4980;SDS011;2507;50.392;7.482;2022-09-30T15:32:20;0.80;;;0.80;;
4980;SDS011;2507;50.392;7.482;2022-09-30T15:34:48;1.23;;;1.10;;
4980;SDS011;2507;50.392;7.482;2022-09-30T15:37:23;1.67;;;1.57;;
4980;SDS011;2507;50.392;7.482;2022-09-30T15:39:53;1.07;;;1.00;;
4980;SDS011;2507;50.392;7.482;2022-09-30T15:47:58;1.00;;;1.00;;
4980;SDS011;2507;50.392;7.482;2022-09-30T15:53:05;2.30;;;2.10;;
4980;SDS011;2507;50.392;7.482;2022-09-30T15:55:42;1.50;;;1.40;;
4980;SDS011;2507;50.392;7.482;2022-09-30T16:02:03;3.87;;;2.13;;
4980;SDS011;2507;50.392;7.482;2022-09-30T16:12:01;1.57;;;1.10;;
4980;SDS011;2507;50.392;7.482;2022-09-30T16:20:03;3.83;;;3.53;;
4980;SDS011;2507;50.392;7.482;2022-09-30T16:27:44;4.00;;;3.70;;
4980;SDS011;2507;50.392;7.482;2022-09-30T16:30:13;3.00;;;2.30;;
4980;SDS011;2507;50.392;7.482;2022-09-30T16:32:42;4.70;;;2.33;;
4980;SDS011;2507;50.392;7.482;2022-09-30T16:35:16;2.73;;;2.57;;
4980;SDS011;2507;50.392;7.482;2022-09-30T16:37:44;2.80;;;2.60;;
4980;SDS011;2507;50.392;7.482;2022-09-30T16:40:22;3.50;;;3.30;;
4980;SDS011;2507;50.392;7.482;2022-09-30T16:42:49;3.87;;;3.57;;
4980;SDS011;2507;50.392;7.482;2022-09-30T16:45:16;2.10;;;2.00;;
4980;SDS011;2507;50.392;7.482;2022-09-30T16:47:42;3.97;;;3.20;;
4980;SDS011;2507;50.392;7.482;2022-09-30T16:50:15;5.07;;;2.70;;
4980;SDS011;2507;50.392;7.482;2022-09-30T16:52:45;7.80;;;6.70;;
4980;SDS011;2507;50.392;7.482;2022-09-30T16:55:10;9.07;;;8.17;;
4980;SDS011;2507;50.392;7.482;2022-09-30T16:57:35;5.77;;;3.97;;
4980;SDS011;2507;50.392;7.482;2022-09-30T17:00:02;6.50;;;5.80;;
4980;SDS011;2507;50.392;7.482;2022-09-30T17:02:28;6.10;;;5.47;;
4980;SDS011;2507;50.392;7.482;2022-09-30T17:04:54;4.20;;;3.90;;
4980;SDS011;2507;50.392;7.482;2022-09-30T17:07:19;5.27;;;4.77;;
4980;SDS011;2507;50.392;7.482;2022-09-30T17:09:44;6.97;;;6.27;;
4980;SDS011;2507;50.392;7.482;2022-09-30T17:12:10;7.20;;;6.50;;
4980;SDS011;2507;50.392;7.482;2022-09-30T17:14:36;7.50;;;6.80;;
4980;SDS011;2507;50.392;7.482;2022-09-30T17:17:03;7.70;;;7.00;;
4980;SDS011;2507;50.392;7.482;2022-09-30T17:19:28;6.70;;;6.20;;
4980;SDS011;2507;50.392;7.482;2022-09-30T17:21:56;12.43;;;11.20;;
4980;SDS011;2507;50.392;7.482;2022-09-30T17:24:22;6.10;;;5.60;;
4980;SDS011;2507;50.392;7.482;2022-09-30T17:26:47;8.80;;;8.00;;
4980;SDS011;2507;50.392;7.482;2022-09-30T17:29:12;9.83;;;8.93;;
4980;SDS011;2507;50.392;7.482;2022-09-30T17:31:38;7.97;;;7.17;;
4980;SDS011;2507;50.392;7.482;2022-09-30T17:34:03;6.87;;;6.17;;
4980;SDS011;2507;50.392;7.482;2022-09-30T17:36:32;4.30;;;4.00;;
4980;SDS011;2507;50.392;7.482;2022-09-30T17:38:58;4.67;;;4.27;;
4980;SDS011;2507;50.392;7.482;2022-09-30T17:41:24;5.13;;;4.07;;
4980;SDS011;2507;50.392;7.482;2022-09-30T17:44:07;5.17;;;4.73;;
4980;SDS011;2507;50.392;7.482;2022-09-30T17:46:40;4.30;;;4.00;;
4980;SDS011;2507;50.392;7.482;2022-09-30T17:49:07;3.97;;;3.73;;
4980;SDS011;2507;50.392;7.482;2022-09-30T17:51:33;4.10;;;3.60;;
4980;SDS011;2507;50.392;7.482;2022-09-30T17:53:59;3.67;;;3.47;;
4980;SDS011;2507;50.392;7.482;2022-09-30T17:56:24;4.37;;;4.07;;
4980;SDS011;2507;50.392;7.482;2022-09-30T17:58:49;4.40;;;4.10;;
4980;SDS011;2507;50.392;7.482;2022-09-30T18:01:16;6.10;;;5.60;;
4980;SDS011;2507;50.392;7.482;2022-09-30T18:03:43;5.57;;;5.27;;
4980;SDS011;2507;50.392;7.482;2022-09-30T18:06:09;5.53;;;4.70;;
4980;SDS011;2507;50.392;7.482;2022-09-30T18:08:35;6.37;;;5.77;;
4980;SDS011;2507;50.392;7.482;2022-09-30T18:11:00;9.43;;;8.10;;
4980;SDS011;2507;50.392;7.482;2022-09-30T18:13:26;8.33;;;7.60;;
4980;SDS011;2507;50.392;7.482;2022-09-30T18:15:52;15.20;;;13.70;;
4980;SDS011;2507;50.392;7.482;2022-09-30T18:18:18;13.00;;;11.63;;
4980;SDS011;2507;50.392;7.482;2022-09-30T18:20:44;12.00;;;10.87;;
4980;SDS011;2507;50.392;7.482;2022-09-30T18:23:11;6.50;;;6.10;;
4980;SDS011;2507;50.392;7.482;2022-09-30T18:25:38;4.93;;;4.43;;
4980;SDS011;2507;50.392;7.482;2022-09-30T18:28:05;4.10;;;3.70;;
4980;SDS011;2507;50.392;7.482;2022-09-30T18:30:32;4.00;;;3.20;;
4980;SDS011;2507;50.392;7.482;2022-09-30T18:32:58;3.00;;;2.83;;
4980;SDS011;2507;50.392;7.482;2022-09-30T18:35:23;5.07;;;2.80;;
4980;SDS011;2507;50.392;7.482;2022-09-30T18:37:49;3.20;;;3.00;;
4980;SDS011;2507;50.392;7.482;2022-09-30T18:40:16;2.67;;;2.57;;
4980;SDS011;2507;50.392;7.482;2022-09-30T18:42:47;3.03;;;2.83;;
4980;SDS011;2507;50.392;7.482;2022-09-30T18:45:16;7.20;;;6.07;;
4980;SDS011;2507;50.392;7.482;2022-09-30T18:47:41;9.07;;;8.17;;
4980;SDS011;2507;50.392;7.482;2022-09-30T18:50:08;6.83;;;6.23;;
4980;SDS011;2507;50.392;7.482;2022-09-30T18:52:35;6.87;;;5.63;;
4980;SDS011;2507;50.392;7.482;2022-09-30T18:55:00;7.50;;;6.60;;
4980;SDS011;2507;50.392;7.482;2022-09-30T18:57:26;5.70;;;5.20;;
4980;SDS011;2507;50.392;7.482;2022-09-30T18:59:51;4.13;;;3.53;;
4980;SDS011;2507;50.392;7.482;2022-09-30T19:02:16;3.40;;;3.20;;
4980;SDS011;2507;50.392;7.482;2022-09-30T19:04:43;2.90;;;2.63;;
4980;SDS011;2507;50.392;7.482;2022-09-30T19:07:11;3.00;;;2.53;;
4980;SDS011;2507;50.392;7.482;2022-09-30T19:09:36;4.30;;;2.23;;
4980;SDS011;2507;50.392;7.482;2022-09-30T19:12:04;2.83;;;2.63;;
4980;SDS011;2507;50.392;7.482;2022-09-30T19:14:29;6.00;;;4.10;;
4980;SDS011;2507;50.392;7.482;2022-09-30T19:16:54;6.37;;;5.77;;
4980;SDS011;2507;50.392;7.482;2022-09-30T19:19:20;9.00;;;8.17;;
4980;SDS011;2507;50.392;7.482;2022-09-30T19:21:46;9.10;;;7.43;;